sensor_id;sensor_type;location;lat;lon;timestamp;P1;durP1;ratioP1;P2;durP2;ratioP2
2061;SDS011;11070;51.336;12.340;2022-08-05T00:02:07;7.67;;;6.90;;
2061;SDS011;11070;51.336;12.340;2022-08-05T00:04:33;7.10;;;6.60;;
2061;SDS011;11070;51.336;12.340;2022-08-05T00:06:58;6.67;;;6.00;;
2061;SDS011;11070;51.336;12.340;2022-08-05T00:09:24;6.67;;;6.00;;
2061;SDS011;11070;51.336;12.340;2022-08-05T00:11:50;6.90;;;6.23;;
2061;SDS011;11070;51.336;12.340;2022-08-05T00:14:16;6.43;;;5.90;;
2061;SDS011;11070;51.336;12.340;2022-08-05T00:16:45;8.33;;;6.40;;
2061;SDS011;11070;51.336;12.340;2022-08-05T00:19:12;9.83;;;6.70;;
2061;SDS011;11070;51.336;12.340;2022-08-05T00:21:38;6.70;;;5.70;;
2061;SDS011;11070;51.336;12.340;2022-08-05T00:24:04;6.70;;;5.93;;
2061;SDS011;11070;51.336;12.340;2022-08-05T00:26:29;6.17;;;5.77;;
2061;SDS011;11070;51.336;12.340;2022-08-05T00:28:55;5.70;;;5.40;;
2061;SDS011;11070;51.336;12.340;2022-08-05T00:31:21;7.10;;;6.40;;
2061;SDS011;11070;51.336;12.340;2022-08-05T00:33:46;6.33;;;5.73;;
2061;SDS011;11070;51.336;12.340;2022-08-05T00:36:13;6.50;;;5.87;;
2061;SDS011;11070;51.336;12.340;2022-08-05T00:38:39;5.73;;;5.23;;
2061;SDS011;11070;51.336;12.340;2022-08-05T00:41:04;7.97;;;5.20;;
2061;SDS011;11070;51.336;12.340;2022-08-05T00:43:33;5.30;;;5.00;;
2061;SDS011;11070;51.336;12.340;2022-08-05T00:45:59;5.57;;;5.10;;
2061;SDS011;11070;51.336;12.340;2022-08-05T00:48:25;6.27;;;5.60;;
2061;SDS011;11070;51.336;12.340;2022-08-05T00:50:51;7.80;;;5.30;;
2061;SDS011;11070;51.336;12.340;2022-08-05T00:53:19;6.10;;;5.50;;
2061;SDS011;11070;51.336;12.340;2022-08-05T00:55:47;6.20;;;5.70;;
2061;SDS011;11070;51.336;12.340;2022-08-05T00:58:13;6.23;;;5.10;;
2061;SDS011;11070;51.336;12.340;2022-08-05T01:00:42;6.63;;;5.97;;
2061;SDS011;11070;51.336;12.340;2022-08-05T01:03:10;7.87;;;5.43;;
2061;SDS011;11070;51.336;12.340;2022-08-05T01:05:36;5.83;;;5.17;;
2061;SDS011;11070;51.336;12.340;2022-08-05T01:08:03;6.07;;;5.47;;
2061;SDS011;11070;51.336;12.340;2022-08-05T01:10:50;6.27;;;5.10;;
2061;SDS011;11070;51.336;12.340;2022-08-05T01:16:04;5.83;;;5.30;;
2061;SDS011;11070;51.336;12.340;2022-08-05T01:18:36;6.53;;;5.80;;
2061;SDS011;11070;51.336;12.340;2022-08-05T01:21:31;6.00;;;5.50;;
2061;SDS011;11070;51.336;12.340;2022-08-05T01:29:35;6.73;;;5.93;;
2061;SDS011;11070;51.336;12.340;2022-08-05T01:32:07;6.27;;;5.00;;
2061;SDS011;11070;51.336;12.340;2022-08-05T01:34:56;6.10;;;5.50;;
2061;SDS011;11070;51.336;12.340;2022-08-05T01:40:16;5.20;;;4.70;;
2061;SDS011;11070;51.336;12.340;2022-08-05T01:42:44;5.77;;;5.30;;
2061;SDS011;11070;51.336;12.340;2022-08-05T01:45:11;6.00;;;5.50;;
2061;SDS011;11070;51.336;12.340;2022-08-05T01:47:38;7.53;;;5.23;;
2061;SDS011;11070;51.336;12.340;2022-08-05T01:50:10;8.50;;;5.60;;
2061;SDS011;11070;51.336;12.340;2022-08-05T01:52:38;5.57;;;5.13;;
2061;SDS011;11070;51.336;12.340;2022-08-05T01:55:07;5.80;;;5.30;;
2061;SDS011;11070;51.336;12.340;2022-08-05T01:57:40;5.63;;;5.13;;
2061;SDS011;11070;51.336;12.340;2022-08-05T02:00:09;5.23;;;4.83;;
2061;SDS011;11070;51.336;12.340;2022-08-05T02:02:37;6.73;;;5.57;;
2061;SDS011;11070;51.336;12.340;2022-08-05T02:05:08;6.63;;;5.43;;
2061;SDS011;11070;51.336;12.340;2022-08-05T02:07:37;7.63;;;5.70;;
2061;SDS011;11070;51.336;12.340;2022-08-05T02:10:03;7.80;;;5.90;;
2061;SDS011;11070;51.336;12.340;2022-08-05T02:12:35;6.73;;;5.40;;
2061;SDS011;11070;51.336;12.340;2022-08-05T02:15:12;6.97;;;5.60;;
2061;SDS011;11070;51.336;12.340;2022-08-05T02:17:57;5.88;;;5.43;;
2061;SDS011;11070;51.336;12.340;2022-08-05T02:20:45;7.57;;;5.90;;
2061;SDS011;11070;51.336;12.340;2022-08-05T02:23:16;7.67;;;5.20;;
2061;SDS011;11070;51.336;12.340;2022-08-05T02:25:46;6.47;;;5.13;;
2061;SDS011;11070;51.336;12.340;2022-08-05T02:28:15;7.72;;;5.20;;
2061;SDS011;11070;51.336;12.340;2022-08-05T02:30:51;7.88;;;5.47;;
2061;SDS011;11070;51.336;12.340;2022-08-05T02:33:26;7.93;;;5.50;;
2061;SDS011;11070;51.336;12.340;2022-08-05T02:35:52;7.40;;;5.73;;
2061;SDS011;11070;51.336;12.340;2022-08-05T02:38:21;7.40;;;5.87;;
2061;SDS011;11070;51.336;12.340;2022-08-05T02:40:48;6.63;;;5.90;;
2061;SDS011;11070;51.336;12.340;2022-08-05T02:43:14;6.13;;;5.43;;
2061;SDS011;11070;51.336;12.340;2022-08-05T02:45:42;5.80;;;5.30;;
2061;SDS011;11070;51.336;12.340;2022-08-05T02:48:10;6.13;;;5.53;;
2061;SDS011;11070;51.336;12.340;2022-08-05T02:50:36;5.80;;;5.30;;
2061;SDS011;11070;51.336;12.340;2022-08-05T02:53:03;14.88;;;6.20;;
2061;SDS011;11070;51.336;12.340;2022-08-05T02:55:30;5.90;;;5.40;;
2061;SDS011;11070;51.336;12.340;2022-08-05T02:57:57;5.43;;;5.03;;
2061;SDS011;11070;51.336;12.340;2022-08-05T03:00:24;8.35;;;6.10;;
2061;SDS011;11070;51.336;12.340;2022-08-05T03:02:51;5.47;;;5.10;;
2061;SDS011;11070;51.336;12.340;2022-08-05T03:05:17;6.57;;;5.93;;
2061;SDS011;11070;51.336;12.340;2022-08-05T03:07:44;7.40;;;5.70;;
2061;SDS011;11070;51.336;12.340;2022-08-05T03:10:11;6.40;;;5.63;;
2061;SDS011;11070;51.336;12.340;2022-08-05T03:12:39;6.10;;;5.60;;
2061;SDS011;11070;51.336;12.340;2022-08-05T03:15:14;6.22;;;5.75;;
2061;SDS011;11070;51.336;12.340;2022-08-05T03:17:40;7.97;;;5.77;;
2061;SDS011;11070;51.336;12.340;2022-08-05T03:20:05;6.37;;;5.77;;
2061;SDS011;11070;51.336;12.340;2022-08-05T03:22:32;6.53;;;5.23;;
2061;SDS011;11070;51.336;12.340;2022-08-05T03:24:58;7.47;;;5.67;;
2061;SDS011;11070;51.336;12.340;2022-08-05T03:27:24;8.17;;;6.33;;
2061;SDS011;11070;51.336;12.340;2022-08-05T03:29:50;7.80;;;6.00;;
2061;SDS011;11070;51.336;12.340;2022-08-05T03:32:16;6.37;;;5.77;;
2061;SDS011;11070;51.336;12.340;2022-08-05T03:34:43;7.00;;;5.80;;
2061;SDS011;11070;51.336;12.340;2022-08-05T03:37:10;6.57;;;5.70;;
2061;SDS011;11070;51.336;12.340;2022-08-05T03:39:36;6.87;;;6.17;;
2061;SDS011;11070;51.336;12.340;2022-08-05T03:42:02;7.43;;;6.73;;
2061;SDS011;11070;51.336;12.340;2022-08-05T03:44:28;7.50;;;6.90;;
2061;SDS011;11070;51.336;12.340;2022-08-05T03:46:54;12.57;;;6.90;;
2061;SDS011;11070;51.336;12.340;2022-08-05T03:49:19;7.07;;;6.27;;
2061;SDS011;11070;51.336;12.340;2022-08-05T03:51:55;6.67;;;6.03;;
2061;SDS011;11070;51.336;12.340;2022-08-05T03:56:57;6.17;;;5.67;;
2061;SDS011;11070;51.336;12.340;2022-08-05T03:59:24;5.80;;;5.30;;
2061;SDS011;11070;51.336;12.340;2022-08-05T04:02:04;6.20;;;5.70;;
2061;SDS011;11070;51.336;12.340;2022-08-05T04:04:32;7.30;;;5.72;;
2061;SDS011;11070;51.336;12.340;2022-08-05T04:06:59;6.85;;;6.18;;
2061;SDS011;11070;51.336;12.340;2022-08-05T04:09:25;8.02;;;5.80;;
2061;SDS011;11070;51.336;12.340;2022-08-05T04:11:54;7.03;;;6.37;;
2061;SDS011;11070;51.336;12.340;2022-08-05T04:14:20;6.47;;;5.90;;
2061;SDS011;11070;51.336;12.340;2022-08-05T04:16:46;6.10;;;5.60;;
2061;SDS011;11070;51.336;12.340;2022-08-05T04:19:13;6.70;;;6.10;;
2061;SDS011;11070;51.336;12.340;2022-08-05T04:21:39;8.30;;;6.30;;
2061;SDS011;11070;51.336;12.340;2022-08-05T04:24:37;6.43;;;5.87;;
2061;SDS011;11070;51.336;12.340;2022-08-05T04:27:03;6.20;;;5.60;;
2061;SDS011;11070;51.336;12.340;2022-08-05T04:29:29;9.07;;;7.07;;
2061;SDS011;11070;51.336;12.340;2022-08-05T04:31:55;9.37;;;6.03;;
2061;SDS011;11070;51.336;12.340;2022-08-05T04:34:21;7.47;;;6.07;;
2061;SDS011;11070;51.336;12.340;2022-08-05T04:36:46;6.57;;;5.97;;
2061;SDS011;11070;51.336;12.340;2022-08-05T04:39:12;8.77;;;5.90;;
2061;SDS011;11070;51.336;12.340;2022-08-05T04:41:38;7.93;;;5.50;;
2061;SDS011;11070;51.336;12.340;2022-08-05T04:44:03;10.90;;;6.93;;
2061;SDS011;11070;51.336;12.340;2022-08-05T04:46:31;6.30;;;5.80;;
2061;SDS011;11070;51.336;12.340;2022-08-05T04:49:46;6.97;;;5.57;;
2061;SDS011;11070;51.336;12.340;2022-08-05T04:52:11;6.40;;;5.80;;
2061;SDS011;11070;51.336;12.340;2022-08-05T04:54:37;5.77;;;5.27;;
2061;SDS011;11070;51.336;12.340;2022-08-05T04:57:03;9.17;;;5.43;;
2061;SDS011;11070;51.336;12.340;2022-08-05T04:59:29;5.83;;;5.20;;
2061;SDS011;11070;51.336;12.340;2022-08-05T05:01:54;5.20;;;4.70;;
2061;SDS011;11070;51.336;12.340;2022-08-05T05:04:22;8.20;;;4.87;;
2061;SDS011;11070;51.336;12.340;2022-08-05T05:06:48;5.60;;;5.03;;
2061;SDS011;11070;51.336;12.340;2022-08-05T05:09:14;6.10;;;5.50;;
2061;SDS011;11070;51.336;12.340;2022-08-05T05:11:40;8.97;;;8.03;;
2061;SDS011;11070;51.336;12.340;2022-08-05T05:14:06;5.53;;;4.90;;
2061;SDS011;11070;51.336;12.340;2022-08-05T05:16:31;10.30;;;4.97;;
2061;SDS011;11070;51.336;12.340;2022-08-05T05:18:57;7.70;;;5.10;;
2061;SDS011;11070;51.336;12.340;2022-08-05T05:21:23;5.90;;;5.07;;
2061;SDS011;11070;51.336;12.340;2022-08-05T05:23:49;8.40;;;4.90;;
2061;SDS011;11070;51.336;12.340;2022-08-05T05:26:15;5.33;;;4.80;;
2061;SDS011;11070;51.336;12.340;2022-08-05T05:28:40;9.50;;;5.33;;
2061;SDS011;11070;51.336;12.340;2022-08-05T05:31:06;14.07;;;6.10;;
2061;SDS011;11070;51.336;12.340;2022-08-05T05:33:32;7.70;;;5.37;;
2061;SDS011;11070;51.336;12.340;2022-08-05T05:35:58;12.77;;;5.40;;
2061;SDS011;11070;51.336;12.340;2022-08-05T05:38:23;6.43;;;5.27;;
2061;SDS011;11070;51.336;12.340;2022-08-05T05:40:49;9.40;;;5.43;;
2061;SDS011;11070;51.336;12.340;2022-08-05T05:43:15;8.73;;;5.97;;
2061;SDS011;11070;51.336;12.340;2022-08-05T05:45:41;7.97;;;5.60;;
2061;SDS011;11070;51.336;12.340;2022-08-05T05:48:07;7.03;;;5.40;;
2061;SDS011;11070;51.336;12.340;2022-08-05T05:50:33;8.00;;;5.30;;
2061;SDS011;11070;51.336;12.340;2022-08-05T05:53:00;6.23;;;5.47;;
2061;SDS011;11070;51.336;12.340;2022-08-05T05:55:26;9.57;;;5.70;;
2061;SDS011;11070;51.336;12.340;2022-08-05T05:57:52;7.90;;;5.60;;
2061;SDS011;11070;51.336;12.340;2022-08-05T06:00:18;8.23;;;5.30;;
2061;SDS011;11070;51.336;12.340;2022-08-05T06:02:50;6.40;;;5.20;;
2061;SDS011;11070;51.336;12.340;2022-08-05T06:05:16;6.37;;;5.77;;
2061;SDS011;11070;51.336;12.340;2022-08-05T06:07:45;10.33;;;5.20;;
2061;SDS011;11070;51.336;12.340;2022-08-05T06:10:12;4.87;;;4.47;;
2061;SDS011;11070;51.336;12.340;2022-08-05T06:12:38;6.00;;;5.30;;
2061;SDS011;11070;51.336;12.340;2022-08-05T06:15:05;9.03;;;5.50;;
2061;SDS011;11070;51.336;12.340;2022-08-05T06:17:34;6.43;;;5.30;;
2061;SDS011;11070;51.336;12.340;2022-08-05T06:20:00;6.73;;;4.93;;
2061;SDS011;11070;51.336;12.340;2022-08-05T06:22:32;6.47;;;5.00;;
2061;SDS011;11070;51.336;12.340;2022-08-05T06:24:59;7.93;;;4.87;;
2061;SDS011;11070;51.336;12.340;2022-08-05T06:27:25;6.87;;;5.13;;
2061;SDS011;11070;51.336;12.340;2022-08-05T06:29:51;6.00;;;4.97;;
2061;SDS011;11070;51.336;12.340;2022-08-05T06:32:17;5.33;;;4.83;;
2061;SDS011;11070;51.336;12.340;2022-08-05T06:34:43;7.20;;;5.27;;
2061;SDS011;11070;51.336;12.340;2022-08-05T06:37:08;7.23;;;4.20;;
2061;SDS011;11070;51.336;12.340;2022-08-05T06:39:34;9.70;;;4.90;;
2061;SDS011;11070;51.336;12.340;2022-08-05T06:42:04;7.33;;;5.10;;
2061;SDS011;11070;51.336;12.340;2022-08-05T06:44:33;9.87;;;5.23;;
2061;SDS011;11070;51.336;12.340;2022-08-05T06:46:59;6.07;;;5.47;;
2061;SDS011;11070;51.336;12.340;2022-08-05T06:49:25;8.23;;;5.10;;
2061;SDS011;11070;51.336;12.340;2022-08-05T06:51:53;5.93;;;5.43;;
2061;SDS011;11070;51.336;12.340;2022-08-05T06:54:19;8.70;;;6.47;;
2061;SDS011;11070;51.336;12.340;2022-08-05T06:56:45;6.63;;;5.30;;
2061;SDS011;11070;51.336;12.340;2022-08-05T06:59:15;8.03;;;5.60;;
2061;SDS011;11070;51.336;12.340;2022-08-05T07:01:47;5.80;;;5.30;;
2061;SDS011;11070;51.336;12.340;2022-08-05T07:04:13;6.07;;;5.50;;
2061;SDS011;11070;51.336;12.340;2022-08-05T07:06:39;5.13;;;4.60;;
2061;SDS011;11070;51.336;12.340;2022-08-05T07:09:05;6.57;;;5.17;;
2061;SDS011;11070;51.336;12.340;2022-08-05T07:11:32;5.17;;;4.63;;
2061;SDS011;11070;51.336;12.340;2022-08-05T07:13:58;6.50;;;5.57;;
2061;SDS011;11070;51.336;12.340;2022-08-05T07:16:47;8.23;;;5.30;;
2061;SDS011;11070;51.336;12.340;2022-08-05T07:19:19;5.90;;;5.10;;
2061;SDS011;11070;51.336;12.340;2022-08-05T07:21:46;6.20;;;5.50;;
2061;SDS011;11070;51.336;12.340;2022-08-05T07:24:13;6.73;;;5.60;;
2061;SDS011;11070;51.336;12.340;2022-08-05T07:26:40;6.23;;;5.50;;
2061;SDS011;11070;51.336;12.340;2022-08-05T07:29:07;8.70;;;4.97;;
2061;SDS011;11070;51.336;12.340;2022-08-05T07:31:33;6.17;;;5.33;;
2061;SDS011;11070;51.336;12.340;2022-08-05T07:33:59;5.90;;;4.83;;
2061;SDS011;11070;51.336;12.340;2022-08-05T07:36:25;7.33;;;4.80;;
2061;SDS011;11070;51.336;12.340;2022-08-05T07:38:51;10.13;;;5.37;;
2061;SDS011;11070;51.336;12.340;2022-08-05T07:41:19;9.60;;;4.97;;
2061;SDS011;11070;51.336;12.340;2022-08-05T07:43:46;8.13;;;4.80;;
2061;SDS011;11070;51.336;12.340;2022-08-05T07:46:13;6.67;;;5.20;;
2061;SDS011;11070;51.336;12.340;2022-08-05T07:48:38;6.47;;;4.70;;
2061;SDS011;11070;51.336;12.340;2022-08-05T07:51:05;8.10;;;5.50;;
2061;SDS011;11070;51.336;12.340;2022-08-05T07:53:31;8.93;;;5.30;;
2061;SDS011;11070;51.336;12.340;2022-08-05T07:56:00;7.33;;;5.17;;
2061;SDS011;11070;51.336;12.340;2022-08-05T07:58:27;6.60;;;5.20;;
2061;SDS011;11070;51.336;12.340;2022-08-05T08:00:53;6.77;;;5.17;;
2061;SDS011;11070;51.336;12.340;2022-08-05T08:03:20;5.50;;;5.00;;
2061;SDS011;11070;51.336;12.340;2022-08-05T08:05:46;7.80;;;5.47;;
2061;SDS011;11070;51.336;12.340;2022-08-05T08:08:15;6.70;;;5.00;;
2061;SDS011;11070;51.336;12.340;2022-08-05T08:10:41;7.13;;;5.03;;
2061;SDS011;11070;51.336;12.340;2022-08-05T08:13:07;5.57;;;4.90;;
2061;SDS011;11070;51.336;12.340;2022-08-05T08:15:34;4.97;;;4.40;;
2061;SDS011;11070;51.336;12.340;2022-08-05T08:18:00;5.63;;;5.07;;
2061;SDS011;11070;51.336;12.340;2022-08-05T08:20:27;7.17;;;4.80;;
2061;SDS011;11070;51.336;12.340;2022-08-05T08:22:53;5.23;;;4.73;;
2061;SDS011;11070;51.336;12.340;2022-08-05T08:25:28;7.53;;;4.60;;
2061;SDS011;11070;51.336;12.340;2022-08-05T08:27:55;5.10;;;4.70;;
2061;SDS011;11070;51.336;12.340;2022-08-05T08:30:23;6.70;;;5.20;;
2061;SDS011;11070;51.336;12.340;2022-08-05T08:32:49;10.73;;;5.50;;
2061;SDS011;11070;51.336;12.340;2022-08-05T08:35:19;5.80;;;4.73;;
2061;SDS011;11070;51.336;12.340;2022-08-05T08:37:48;5.13;;;4.77;;
2061;SDS011;11070;51.336;12.340;2022-08-05T08:40:14;10.30;;;5.70;;
2061;SDS011;11070;51.336;12.340;2022-08-05T08:42:40;6.63;;;5.17;;
2061;SDS011;11070;51.336;12.340;2022-08-05T08:45:12;6.70;;;5.73;;
2061;SDS011;11070;51.336;12.340;2022-08-05T08:47:40;6.33;;;5.73;;
2061;SDS011;11070;51.336;12.340;2022-08-05T08:50:10;5.40;;;4.90;;
2061;SDS011;11070;51.336;12.340;2022-08-05T08:52:38;7.83;;;5.10;;
2061;SDS011;11070;51.336;12.340;2022-08-05T08:55:05;8.13;;;4.67;;
2061;SDS011;11070;51.336;12.340;2022-08-05T08:57:33;5.37;;;4.87;;
2061;SDS011;11070;51.336;12.340;2022-08-05T08:59:59;6.10;;;5.33;;
2061;SDS011;11070;51.336;12.340;2022-08-05T09:02:25;6.20;;;5.27;;
2061;SDS011;11070;51.336;12.340;2022-08-05T09:04:52;5.50;;;5.07;;
2061;SDS011;11070;51.336;12.340;2022-08-05T09:07:17;6.60;;;5.60;;
2061;SDS011;11070;51.336;12.340;2022-08-05T09:09:43;5.30;;;4.50;;
2061;SDS011;11070;51.336;12.340;2022-08-05T09:12:10;6.23;;;4.87;;
2061;SDS011;11070;51.336;12.340;2022-08-05T09:14:36;6.63;;;4.67;;
2061;SDS011;11070;51.336;12.340;2022-08-05T09:17:04;6.27;;;4.67;;
2061;SDS011;11070;51.336;12.340;2022-08-05T09:19:37;5.03;;;4.53;;
2061;SDS011;11070;51.336;12.340;2022-08-05T09:22:14;6.10;;;4.87;;
2061;SDS011;11070;51.336;12.340;2022-08-05T09:24:40;4.37;;;3.97;;
2061;SDS011;11070;51.336;12.340;2022-08-05T09:27:08;5.53;;;4.50;;
2061;SDS011;11070;51.336;12.340;2022-08-05T09:29:42;9.30;;;6.30;;
2061;SDS011;11070;51.336;12.340;2022-08-05T09:32:16;6.90;;;4.17;;
2061;SDS011;11070;51.336;12.340;2022-08-05T09:35:23;6.53;;;3.90;;
2061;SDS011;11070;51.336;12.340;2022-08-05T09:37:54;4.53;;;4.10;;
2061;SDS011;11070;51.336;12.340;2022-08-05T09:40:34;9.40;;;4.57;;
2061;SDS011;11070;51.336;12.340;2022-08-05T09:57:34;4.53;;;4.13;;
2061;SDS011;11070;51.336;12.340;2022-08-05T10:00:07;4.70;;;4.23;;
2061;SDS011;11070;51.336;12.340;2022-08-05T10:02:41;5.73;;;4.27;;
2061;SDS011;11070;51.336;12.340;2022-08-05T10:05:13;6.87;;;4.50;;
2061;SDS011;11070;51.336;12.340;2022-08-05T10:07:52;3.70;;;3.40;;
2061;SDS011;11070;51.336;12.340;2022-08-05T10:10:20;4.53;;;4.13;;
2061;SDS011;11070;51.336;12.340;2022-08-05T10:12:51;5.47;;;4.40;;
2061;SDS011;11070;51.336;12.340;2022-08-05T10:15:21;17.17;;;6.40;;
2061;SDS011;11070;51.336;12.340;2022-08-05T10:18:15;9.93;;;5.30;;
2061;SDS011;11070;51.336;12.340;2022-08-05T10:23:47;4.20;;;3.90;;
2061;SDS011;11070;51.336;12.340;2022-08-05T10:26:17;4.77;;;4.40;;
2061;SDS011;11070;51.336;12.340;2022-08-05T10:28:46;6.87;;;4.60;;
2061;SDS011;11070;51.336;12.340;2022-08-05T10:31:13;6.23;;;4.90;;
2061;SDS011;11070;51.336;12.340;2022-08-05T10:33:44;6.70;;;4.10;;
2061;SDS011;11070;51.336;12.340;2022-08-05T10:36:11;5.20;;;4.77;;
2061;SDS011;11070;51.336;12.340;2022-08-05T10:38:41;4.53;;;4.17;;
2061;SDS011;11070;51.336;12.340;2022-08-05T10:44:02;6.47;;;4.60;;
2061;SDS011;11070;51.336;12.340;2022-08-05T10:46:43;9.50;;;6.27;;
2061;SDS011;11070;51.336;12.340;2022-08-05T10:49:14;7.13;;;5.90;;
2061;SDS011;11070;51.336;12.340;2022-08-05T10:51:41;6.10;;;4.33;;
2061;SDS011;11070;51.336;12.340;2022-08-05T10:54:12;4.53;;;4.10;;
2061;SDS011;11070;51.336;12.340;2022-08-05T10:56:49;6.43;;;4.73;;
2061;SDS011;11070;51.336;12.340;2022-08-05T10:59:20;4.77;;;4.23;;
2061;SDS011;11070;51.336;12.340;2022-08-05T11:02:04;6.70;;;4.37;;
2061;SDS011;11070;51.336;12.340;2022-08-05T11:04:47;5.40;;;3.80;;
2061;SDS011;11070;51.336;12.340;2022-08-05T11:07:20;5.27;;;4.17;;
2061;SDS011;11070;51.336;12.340;2022-08-05T11:09:47;4.40;;;4.10;;
2061;SDS011;11070;51.336;12.340;2022-08-05T11:20:57;5.23;;;4.27;;
2061;SDS011;11070;51.336;12.340;2022-08-05T11:23:27;5.17;;;4.00;;
2061;SDS011;11070;51.336;12.340;2022-08-05T11:33:27;4.37;;;3.97;;
2061;SDS011;11070;51.336;12.340;2022-08-05T11:36:06;4.67;;;3.63;;
2061;SDS011;11070;51.336;12.340;2022-08-05T11:43:37;4.43;;;3.77;;
2061;SDS011;11070;51.336;12.340;2022-08-05T11:46:07;5.17;;;3.87;;
2061;SDS011;11070;51.336;12.340;2022-08-05T11:48:33;4.10;;;3.77;;
2061;SDS011;11070;51.336;12.340;2022-08-05T11:51:00;5.00;;;3.90;;
2061;SDS011;11070;51.336;12.340;2022-08-05T11:53:26;5.30;;;4.43;;
2061;SDS011;11070;51.336;12.340;2022-08-05T11:56:00;5.00;;;4.10;;
2061;SDS011;11070;51.336;12.340;2022-08-05T12:01:19;4.20;;;3.80;;
2061;SDS011;11070;51.336;12.340;2022-08-05T12:03:48;4.77;;;3.63;;
2061;SDS011;11070;51.336;12.340;2022-08-05T12:06:15;4.03;;;3.70;;
2061;SDS011;11070;51.336;12.340;2022-08-05T12:08:44;4.00;;;3.70;;
2061;SDS011;11070;51.336;12.340;2022-08-05T12:14:14;8.93;;;4.13;;
2061;SDS011;11070;51.336;12.340;2022-08-05T12:16:42;4.60;;;4.20;;
2061;SDS011;11070;51.336;12.340;2022-08-05T12:19:12;3.90;;;3.30;;
2061;SDS011;11070;51.336;12.340;2022-08-05T12:22:00;4.50;;;4.20;;
2061;SDS011;11070;51.336;12.340;2022-08-05T12:24:26;4.43;;;3.90;;
2061;SDS011;11070;51.336;12.340;2022-08-05T12:26:55;6.20;;;4.90;;
2061;SDS011;11070;51.336;12.340;2022-08-05T12:29:25;3.90;;;3.70;;
2061;SDS011;11070;51.336;12.340;2022-08-05T12:31:55;4.37;;;4.07;;
2061;SDS011;11070;51.336;12.340;2022-08-05T12:34:26;6.17;;;3.83;;
2061;SDS011;11070;51.336;12.340;2022-08-05T12:36:55;5.53;;;3.93;;
2061;SDS011;11070;51.336;12.340;2022-08-05T12:39:23;9.30;;;8.50;;
2061;SDS011;11070;51.336;12.340;2022-08-05T12:41:50;9.07;;;6.50;;
2061;SDS011;11070;51.336;12.340;2022-08-05T12:44:28;6.07;;;4.20;;
2061;SDS011;11070;51.336;12.340;2022-08-05T12:46:54;7.40;;;4.10;;
2061;SDS011;11070;51.336;12.340;2022-08-05T12:49:23;4.37;;;4.07;;
2061;SDS011;11070;51.336;12.340;2022-08-05T12:52:00;3.97;;;3.57;;
2061;SDS011;11070;51.336;12.340;2022-08-05T12:54:28;5.63;;;4.63;;
2061;SDS011;11070;51.336;12.340;2022-08-05T12:56:56;4.67;;;4.37;;
2061;SDS011;11070;51.336;12.340;2022-08-05T12:59:41;4.47;;;4.03;;
2061;SDS011;11070;51.336;12.340;2022-08-05T13:02:08;5.47;;;4.17;;
2061;SDS011;11070;51.336;12.340;2022-08-05T13:04:39;4.63;;;4.03;;
2061;SDS011;11070;51.336;12.340;2022-08-05T13:07:11;5.07;;;4.57;;
2061;SDS011;11070;51.336;12.340;2022-08-05T13:10:14;4.60;;;4.30;;
2061;SDS011;11070;51.336;12.340;2022-08-05T13:12:42;4.83;;;4.43;;
2061;SDS011;11070;51.336;12.340;2022-08-05T13:15:10;4.57;;;4.13;;
2061;SDS011;11070;51.336;12.340;2022-08-05T13:17:41;5.70;;;5.13;;
2061;SDS011;11070;51.336;12.340;2022-08-05T13:20:19;4.50;;;4.07;;
2061;SDS011;11070;51.336;12.340;2022-08-05T13:22:48;5.27;;;4.30;;
2061;SDS011;11070;51.336;12.340;2022-08-05T13:25:15;6.50;;;4.83;;
2061;SDS011;11070;51.336;12.340;2022-08-05T13:27:45;5.00;;;4.60;;
2061;SDS011;11070;51.336;12.340;2022-08-05T13:30:13;4.83;;;4.47;;
2061;SDS011;11070;51.336;12.340;2022-08-05T13:32:42;5.20;;;4.33;;
2061;SDS011;11070;51.336;12.340;2022-08-05T13:35:12;5.03;;;4.20;;
2061;SDS011;11070;51.336;12.340;2022-08-05T13:37:39;4.77;;;4.33;;
2061;SDS011;11070;51.336;12.340;2022-08-05T13:40:06;4.87;;;4.50;;
2061;SDS011;11070;51.336;12.340;2022-08-05T13:42:33;4.37;;;4.07;;
2061;SDS011;11070;51.336;12.340;2022-08-05T13:44:59;3.80;;;3.57;;
2061;SDS011;11070;51.336;12.340;2022-08-05T13:47:25;5.53;;;3.43;;
2061;SDS011;11070;51.336;12.340;2022-08-05T13:49:51;3.40;;;3.10;;
2061;SDS011;11070;51.336;12.340;2022-08-05T13:52:19;4.73;;;2.90;;
2061;SDS011;11070;51.336;12.340;2022-08-05T13:54:46;3.63;;;2.60;;
2061;SDS011;11070;51.336;12.340;2022-08-05T13:57:12;4.00;;;2.77;;
2061;SDS011;11070;51.336;12.340;2022-08-05T13:59:45;3.07;;;2.87;;
2061;SDS011;11070;51.336;12.340;2022-08-05T14:02:12;3.97;;;2.60;;
2061;SDS011;11070;51.336;12.340;2022-08-05T14:04:41;2.17;;;2.07;;
2061;SDS011;11070;51.336;12.340;2022-08-05T14:07:50;3.10;;;2.90;;
2061;SDS011;11070;51.336;12.340;2022-08-05T14:10:22;2.77;;;2.57;;
2061;SDS011;11070;51.336;12.340;2022-08-05T14:12:48;3.87;;;2.67;;
2061;SDS011;11070;51.336;12.340;2022-08-05T14:15:18;8.20;;;5.70;;
2061;SDS011;11070;51.336;12.340;2022-08-05T14:17:44;3.00;;;2.83;;
2061;SDS011;11070;51.336;12.340;2022-08-05T14:20:14;3.97;;;2.70;;
2061;SDS011;11070;51.336;12.340;2022-08-05T14:22:41;2.50;;;2.40;;
2061;SDS011;11070;51.336;12.340;2022-08-05T14:25:08;4.20;;;3.90;;
2061;SDS011;11070;51.336;12.340;2022-08-05T14:27:38;6.00;;;2.60;;
2061;SDS011;11070;51.336;12.340;2022-08-05T14:30:07;3.00;;;2.80;;
2061;SDS011;11070;51.336;12.340;2022-08-05T14:32:40;2.70;;;2.50;;
2061;SDS011;11070;51.336;12.340;2022-08-05T14:35:07;2.70;;;2.60;;
2061;SDS011;11070;51.336;12.340;2022-08-05T14:37:34;4.40;;;2.90;;
2061;SDS011;11070;51.336;12.340;2022-08-05T14:40:00;3.20;;;2.90;;
2061;SDS011;11070;51.336;12.340;2022-08-05T14:42:26;2.70;;;2.50;;
2061;SDS011;11070;51.336;12.340;2022-08-05T14:44:53;3.40;;;3.10;;
2061;SDS011;11070;51.336;12.340;2022-08-05T14:47:22;4.03;;;2.67;;
2061;SDS011;11070;51.336;12.340;2022-08-05T14:49:51;2.73;;;2.63;;
2061;SDS011;11070;51.336;12.340;2022-08-05T14:52:17;3.13;;;2.80;;
2061;SDS011;11070;51.336;12.340;2022-08-05T14:54:44;3.00;;;2.80;;
2061;SDS011;11070;51.336;12.340;2022-08-05T14:57:09;3.63;;;2.90;;
2061;SDS011;11070;51.336;12.340;2022-08-05T14:59:35;3.40;;;3.10;;
2061;SDS011;11070;51.336;12.340;2022-08-05T15:02:02;2.90;;;2.70;;
2061;SDS011;11070;51.336;12.340;2022-08-05T15:04:29;2.90;;;2.70;;
2061;SDS011;11070;51.336;12.340;2022-08-05T15:06:55;4.43;;;3.30;;
2061;SDS011;11070;51.336;12.340;2022-08-05T15:09:21;3.43;;;3.10;;
2061;SDS011;11070;51.336;12.340;2022-08-05T15:11:47;3.10;;;2.90;;
2061;SDS011;11070;51.336;12.340;2022-08-05T15:14:12;3.83;;;3.03;;
2061;SDS011;11070;51.336;12.340;2022-08-05T15:16:41;5.37;;;3.50;;
2061;SDS011;11070;51.336;12.340;2022-08-05T15:19:10;3.33;;;3.13;;
2061;SDS011;11070;51.336;12.340;2022-08-05T15:21:35;4.30;;;3.20;;
2061;SDS011;11070;51.336;12.340;2022-08-05T15:24:01;4.17;;;3.33;;
2061;SDS011;11070;51.336;12.340;2022-08-05T15:26:27;9.27;;;6.30;;
2061;SDS011;11070;51.336;12.340;2022-08-05T15:28:53;18.90;;;10.00;;
2061;SDS011;11070;51.336;12.340;2022-08-05T15:31:18;13.80;;;10.47;;
2061;SDS011;11070;51.336;12.340;2022-08-05T15:33:44;14.07;;;10.83;;
2061;SDS011;11070;51.336;12.340;2022-08-05T15:36:10;17.33;;;11.70;;
2061;SDS011;11070;51.336;12.340;2022-08-05T15:38:36;14.60;;;11.37;;
2061;SDS011;11070;51.336;12.340;2022-08-05T15:41:02;13.10;;;11.47;;
2061;SDS011;11070;51.336;12.340;2022-08-05T15:43:27;11.73;;;10.63;;
2061;SDS011;11070;51.336;12.340;2022-08-05T15:45:53;13.13;;;10.33;;
2061;SDS011;11070;51.336;12.340;2022-08-05T15:48:19;12.07;;;10.77;;
2061;SDS011;11070;51.336;12.340;2022-08-05T15:50:45;14.03;;;11.40;;
2061;SDS011;11070;51.336;12.340;2022-08-05T15:53:12;12.43;;;10.90;;
2061;SDS011;11070;51.336;12.340;2022-08-05T15:55:39;11.70;;;10.60;;
2061;SDS011;11070;51.336;12.340;2022-08-05T15:58:23;12.70;;;11.40;;